createdAt,value
2018-06-09T00:02:23.731Z,49.87
2018-06-09T00:04:51.955Z,48.90
2018-06-09T00:07:20.118Z,47.40
2018-06-09T00:09:48.313Z,47.60
2018-06-09T00:12:16.459Z,47.93
2018-06-09T00:14:44.650Z,52.77
2018-06-09T00:17:12.822Z,51.33
2018-06-09T00:19:41.016Z,50.77
2018-06-09T00:22:09.182Z,46.70
2018-06-09T00:24:37.405Z,49.53
2018-06-09T00:27:05.683Z,50.57
2018-06-09T00:29:33.895Z,50.37
2018-06-09T00:32:02.071Z,48.40
2018-06-09T00:34:30.245Z,50.90
2018-06-09T00:36:58.615Z,54.93
2018-06-09T00:39:26.813Z,55.37
2018-06-09T00:41:54.820Z,55.07
2018-06-09T00:44:23.016Z,52.60
2018-06-09T00:46:51.228Z,58.33
2018-06-09T00:49:19.432Z,61.03
2018-06-09T00:51:47.605Z,56.97
2018-06-09T00:54:15.815Z,57.90
2018-06-09T00:56:45.321Z,67.93
2018-06-09T00:59:13.565Z,75.63
2018-06-09T01:01:42.798Z,75.90
2018-06-09T01:04:10.995Z,73.80
2018-06-09T01:06:39.280Z,69.07
2018-06-09T01:09:08.376Z,73.63
2018-06-09T01:11:36.615Z,82.20
2018-06-09T01:14:04.896Z,72.13
2018-06-09T01:16:33.066Z,73.53
2018-06-09T01:19:01.277Z,82.17
2018-06-09T01:21:29.461Z,84.67
2018-06-09T01:23:57.611Z,82.83
2018-06-09T01:26:25.755Z,79.90
2018-06-09T01:28:53.950Z,77.70
2018-06-09T01:31:22.150Z,79.63
2018-06-09T01:33:50.333Z,79.60
2018-06-09T01:36:18.511Z,92.20
2018-06-09T01:38:46.688Z,92.80
2018-06-09T01:41:14.859Z,98.63
2018-06-09T01:43:43.023Z,88.93
2018-06-09T01:46:11.188Z,76.43
2018-06-09T01:48:39.085Z,78.07
2018-06-09T01:51:07.268Z,105.00
2018-06-09T01:53:35.441Z,104.10
2018-06-09T01:56:03.635Z,111.30
2018-06-09T01:58:31.828Z,110.43
2018-06-09T02:00:59.983Z,115.97
2018-06-09T02:03:28.192Z,102.40
2018-06-09T02:05:56.407Z,110.50
2018-06-09T02:08:24.589Z,70.97
2018-06-09T02:10:53.286Z,94.20
2018-06-09T02:13:21.467Z,88.77
2018-06-09T02:15:49.644Z,104.60
2018-06-09T02:18:17.808Z,105.97
2018-06-09T02:20:45.983Z,102.40
2018-06-09T02:23:14.156Z,108.47
2018-06-09T02:25:42.405Z,99.60
2018-06-09T02:28:10.614Z,97.93
2018-06-09T02:30:38.842Z,96.67
2018-06-09T02:33:07.093Z,114.33
2018-06-09T02:35:35.269Z,130.90
2018-06-09T02:38:03.441Z,132.53
2018-06-09T02:40:39.946Z,122.90
2018-06-09T02:43:08.119Z,116.57
2018-06-09T02:45:36.296Z,130.77
2018-06-09T02:48:04.531Z,158.33
2018-06-09T02:50:32.725Z,83.23
2018-06-09T02:53:00.896Z,119.80
2018-06-09T02:55:29.088Z,122.97
2018-06-09T02:57:57.292Z,129.93
2018-06-09T03:00:25.492Z,127.33
2018-06-09T03:02:53.700Z,147.20
2018-06-09T03:05:21.988Z,154.97
2018-06-09T03:07:50.172Z,144.00
2018-06-09T03:10:19.053Z,159.40
2018-06-09T03:12:47.236Z,86.97
2018-06-09T03:15:15.466Z,164.57
2018-06-09T03:17:43.661Z,172.67
2018-06-09T03:20:11.834Z,130.97
2018-06-09T03:22:40.025Z,131.27
2018-06-09T03:25:08.555Z,133.03
2018-06-09T03:27:36.780Z,129.73
2018-06-09T03:30:05.995Z,126.57
2018-06-09T03:32:34.193Z,134.10
2018-06-09T03:35:22.328Z,130.30
2018-06-09T03:37:50.560Z,132.57
2018-06-09T03:40:18.755Z,122.60
2018-06-09T03:42:46.941Z,123.77
2018-06-09T03:45:15.088Z,117.37
2018-06-09T03:47:43.286Z,112.70
2018-06-09T03:50:11.533Z,115.87
2018-06-09T03:52:39.676Z,111.10
2018-06-09T03:55:07.821Z,99.43
2018-06-09T03:57:36.009Z,161.97
2018-06-09T04:00:04.231Z,138.63
2018-06-09T04:02:32.461Z,123.80
2018-06-09T04:05:00.637Z,137.70
2018-06-09T04:07:42.093Z,145.70
2018-06-09T04:10:10.254Z,121.23
2018-06-09T04:12:38.425Z,117.87
2018-06-09T04:15:06.981Z,117.83
2018-06-09T04:17:35.210Z,102.10
2018-06-09T04:20:03.519Z,107.50
2018-06-09T04:22:33.835Z,91.37
2018-06-09T04:25:02.081Z,91.63
2018-06-09T04:27:30.392Z,75.57
2018-06-09T04:29:58.610Z,70.53
2018-06-09T04:32:27.305Z,72.30
2018-06-09T04:34:55.690Z,63.27
2018-06-09T04:37:23.780Z,52.47
2018-06-09T04:39:52.271Z,49.63
2018-06-09T04:42:25.684Z,47.03
2018-06-09T04:44:53.900Z,47.03
2018-06-09T04:47:22.174Z,46.53
2018-06-09T04:49:52.467Z,40.67
2018-06-09T04:52:20.689Z,35.63
2018-06-09T04:54:55.779Z,36.50
2018-06-09T04:57:23.997Z,35.47
2018-06-09T04:59:52.202Z,36.57
2018-06-09T05:02:20.429Z,37.30
2018-06-09T05:04:48.677Z,37.17
2018-06-09T05:07:16.909Z,44.50
2018-06-09T05:09:45.122Z,37.77
2018-06-09T05:12:13.360Z,38.63
2018-06-09T05:14:41.577Z,39.33
2018-06-09T05:17:09.856Z,40.17
2018-06-09T05:19:41.189Z,44.37
2018-06-09T05:22:09.402Z,40.83
2018-06-09T05:24:37.645Z,42.87
2018-06-09T05:27:09.833Z,46.83
2018-06-09T05:29:38.085Z,50.53
2018-06-09T05:32:18.365Z,46.57
2018-06-09T05:34:46.571Z,49.40
2018-06-09T05:37:15.831Z,47.60
2018-06-09T05:39:48.093Z,46.67
2018-06-09T05:42:16.425Z,44.40
2018-06-09T05:44:45.817Z,40.27
2018-06-09T05:47:14.199Z,37.97
2018-06-09T05:49:46.232Z,40.63
2018-06-09T05:52:14.418Z,42.13
2018-06-09T05:54:42.633Z,42.57
2018-06-09T05:57:10.934Z,39.03
2018-06-09T05:59:39.152Z,38.50
2018-06-09T06:02:07.408Z,40.53
2018-06-09T06:04:35.629Z,37.43
2018-06-09T06:07:03.812Z,38.90
2018-06-09T06:09:32.042Z,35.90
2018-06-09T06:12:00.362Z,33.70
2018-06-09T06:14:30.513Z,38.00
2018-06-09T06:16:59.273Z,36.93
2018-06-09T06:19:33.674Z,38.77
2018-06-09T06:22:06.299Z,37.73
2018-06-09T06:24:35.530Z,43.15
2018-06-09T06:27:03.904Z,48.02
2018-06-09T06:29:32.110Z,44.70
2018-06-09T06:32:00.346Z,41.13
2018-06-09T06:34:28.474Z,43.03
2018-06-09T06:36:56.669Z,42.53
2018-06-09T06:39:24.900Z,40.37
2018-06-09T06:41:53.092Z,42.07
2018-06-09T06:44:21.260Z,43.27
2018-06-09T06:46:49.459Z,42.87
2018-06-09T06:49:17.641Z,41.00
2018-06-09T06:51:46.196Z,44.50
2018-06-09T06:54:14.423Z,41.27
2018-06-09T06:56:42.737Z,45.33
2018-06-09T06:59:10.948Z,40.67
2018-06-09T07:01:39.120Z,40.43
2018-06-09T07:04:08.200Z,43.43
2018-06-09T07:06:36.400Z,41.27
2018-06-09T07:09:07.080Z,42.30
2018-06-09T07:11:35.343Z,45.53
2018-06-09T07:14:03.543Z,42.87
2018-06-09T07:16:31.814Z,44.97
2018-06-09T07:19:00.136Z,41.73
2018-06-09T07:21:28.294Z,46.93
2018-06-09T07:23:56.471Z,43.30
2018-06-09T07:26:24.649Z,42.30
2018-06-09T07:28:52.815Z,43.43
2018-06-09T07:31:20.996Z,41.57
2018-06-09T07:33:49.215Z,43.10
2018-06-09T07:36:17.369Z,45.37
2018-06-09T07:38:45.565Z,40.50
2018-06-09T07:41:13.749Z,42.93
2018-06-09T07:43:42.041Z,44.60
2018-06-09T07:46:10.395Z,42.60
2018-06-09T07:48:39.213Z,44.60
2018-06-09T07:51:07.385Z,39.57
2018-06-09T07:53:35.590Z,39.83
2018-06-09T07:56:03.773Z,41.50
2018-06-09T07:58:31.730Z,37.43
2018-06-09T08:01:00.049Z,36.73
2018-06-09T08:03:28.229Z,36.50
2018-06-09T08:05:57.147Z,35.67
2018-06-09T08:08:25.416Z,34.13
2018-06-09T08:10:53.604Z,33.90
2018-06-09T08:13:21.778Z,32.87
2018-06-09T08:15:50.302Z,31.07
2018-06-09T08:18:18.496Z,31.40
2018-06-09T08:20:48.828Z,29.60
2018-06-09T08:23:17.036Z,30.80
2018-06-09T08:25:44.960Z,30.47
2018-06-09T08:28:13.132Z,29.57
2018-06-09T08:30:41.436Z,28.40
2018-06-09T08:33:09.636Z,28.50
2018-06-09T08:35:37.785Z,26.67
2018-06-09T08:38:06.001Z,27.33
2018-06-09T08:40:34.152Z,24.73
2018-06-09T08:43:02.357Z,26.00
2018-06-09T08:45:30.483Z,21.60
2018-06-09T08:47:58.704Z,21.97
2018-06-09T08:50:26.878Z,20.47
2018-06-09T08:52:55.071Z,22.97
2018-06-09T08:55:23.227Z,20.37
2018-06-09T08:57:51.418Z,20.23
2018-06-09T09:00:19.581Z,19.13
2018-06-09T09:02:47.807Z,21.07
2018-06-09T09:05:16.097Z,24.50
2018-06-09T09:07:44.352Z,23.40
2018-06-09T09:10:12.539Z,21.53
2018-06-09T09:12:40.712Z,22.40
2018-06-09T09:15:08.892Z,19.17
2018-06-09T09:17:37.067Z,20.30
2018-06-09T09:20:04.998Z,20.50
2018-06-09T09:22:34.140Z,17.93
2018-06-09T09:25:02.325Z,16.07
2018-06-09T09:27:31.485Z,14.77
2018-06-09T09:29:59.663Z,16.87
2018-06-09T09:32:27.842Z,17.53
2018-06-09T09:34:56.048Z,20.20
2018-06-09T09:37:24.308Z,18.73
2018-06-09T09:39:52.695Z,18.43
2018-06-09T09:42:21.043Z,17.57
2018-06-09T09:44:49.291Z,18.10
2018-06-09T09:47:17.473Z,17.20
2018-06-09T09:49:45.660Z,18.03
2018-06-09T09:52:13.591Z,17.97
2018-06-09T09:54:41.793Z,16.27
2018-06-09T09:57:09.961Z,17.37
2018-06-09T09:59:38.164Z,17.50
2018-06-09T10:02:06.496Z,17.33
2018-06-09T10:04:34.744Z,17.97
2018-06-09T10:07:02.978Z,19.93
2018-06-09T10:09:31.338Z,18.13
2018-06-09T10:11:59.554Z,17.80
2018-06-09T10:14:27.750Z,17.60
2018-06-09T10:16:55.985Z,17.07
2018-06-09T10:19:24.190Z,18.00
2018-06-09T10:21:52.456Z,16.03
2018-06-09T10:24:20.576Z,18.20
2018-06-09T10:26:49.379Z,15.43
2018-06-09T10:29:17.918Z,16.80
2018-06-09T10:31:46.080Z,16.10
2018-06-09T10:34:14.256Z,16.47
2018-06-09T10:36:43.841Z,15.40
2018-06-09T10:39:11.779Z,16.47
2018-06-09T10:41:39.947Z,16.37
2018-06-09T10:44:08.122Z,14.67
2018-06-09T10:46:36.329Z,14.10
2018-06-09T10:49:04.489Z,15.17
2018-06-09T10:51:32.640Z,15.30
2018-06-09T10:54:00.787Z,15.77
2018-06-09T10:56:28.936Z,15.13
2018-06-09T10:58:57.131Z,15.83
2018-06-09T11:01:25.307Z,15.20
2018-06-09T11:03:53.490Z,14.93
2018-06-09T11:06:21.638Z,14.33
2018-06-09T11:08:49.823Z,14.37
2018-06-09T11:11:21.289Z,17.00
2018-06-09T11:13:49.484Z,16.27
2018-06-09T11:16:17.655Z,19.43
2018-06-09T11:18:45.863Z,14.43
2018-06-09T11:21:14.062Z,15.93
2018-06-09T11:23:42.272Z,14.40
2018-06-09T11:26:10.444Z,14.50
2018-06-09T11:28:38.626Z,14.17
2018-06-09T11:31:06.595Z,15.07
2018-06-09T11:33:34.814Z,16.17
2018-06-09T11:36:03.104Z,16.40
2018-06-09T11:38:31.288Z,14.60
2018-06-09T11:40:59.479Z,15.67
2018-06-09T11:43:27.664Z,14.90
2018-06-09T11:45:55.895Z,13.47
2018-06-09T11:48:24.133Z,13.67
2018-06-09T11:50:52.268Z,13.50
2018-06-09T11:53:20.462Z,13.30
2018-06-09T11:55:48.752Z,13.73
2018-06-09T11:58:16.990Z,12.63
2018-06-09T12:00:45.190Z,13.03
2018-06-09T12:03:13.167Z,13.50
2018-06-09T12:05:41.425Z,12.57
2018-06-09T12:08:09.652Z,11.63
2018-06-09T12:10:37.883Z,13.97
2018-06-09T12:13:06.159Z,13.83
2018-06-09T12:15:34.551Z,12.83
2018-06-09T12:18:03.290Z,15.80
2018-06-09T12:20:31.660Z,12.60
2018-06-09T12:22:59.978Z,13.03
2018-06-09T12:25:28.253Z,12.90
2018-06-09T12:27:56.427Z,14.20
2018-06-09T12:30:24.607Z,14.00
2018-06-09T12:32:52.819Z,13.23
2018-06-09T12:35:21.016Z,14.40
2018-06-09T12:37:49.196Z,14.37
2018-06-09T12:40:18.403Z,15.20
2018-06-09T12:42:49.679Z,14.53
2018-06-09T12:45:17.627Z,14.87
2018-06-09T12:47:46.012Z,14.20
2018-06-09T12:50:14.224Z,13.20
2018-06-09T12:52:42.428Z,12.50
2018-06-09T12:55:10.704Z,9.37
2018-06-09T12:57:38.948Z,9.43
2018-06-09T13:00:07.218Z,8.33
2018-06-09T13:02:35.509Z,8.13
2018-06-09T13:05:03.814Z,9.77
2018-06-09T13:07:32.085Z,10.03
2018-06-09T13:10:00.333Z,10.37
2018-06-09T13:12:28.547Z,10.47
2018-06-09T13:14:56.599Z,11.57
2018-06-09T13:17:24.838Z,17.43
2018-06-09T13:19:53.275Z,10.00
2018-06-09T13:22:21.545Z,10.93
2018-06-09T13:24:50.325Z,9.43
2018-06-09T13:27:18.821Z,9.60
2018-06-09T13:29:47.121Z,9.80
2018-06-09T13:32:15.326Z,9.60
2018-06-09T13:34:43.633Z,10.47
2018-06-09T13:37:11.900Z,9.73
2018-06-09T13:39:40.599Z,9.93
2018-06-09T13:42:08.819Z,10.37
2018-06-09T13:44:37.042Z,10.50
2018-06-09T13:47:05.319Z,11.63
2018-06-09T13:49:33.573Z,10.97
2018-06-09T13:52:02.086Z,11.03
2018-06-09T13:54:30.282Z,9.83
2018-06-09T13:56:58.257Z,9.87
2018-06-09T13:59:26.445Z,10.47
2018-06-09T14:01:54.798Z,10.83
2018-06-09T14:04:22.992Z,9.87
2018-06-09T14:06:51.267Z,9.67
2018-06-09T14:09:19.468Z,9.87
2018-06-09T14:11:48.904Z,12.47
2018-06-09T14:14:17.268Z,13.80
2018-06-09T14:16:45.633Z,15.30
2018-06-09T14:19:13.906Z,10.87
2018-06-09T14:21:42.154Z,9.23
2018-06-09T14:24:10.460Z,4.90
2018-06-09T14:26:38.718Z,5.33
2018-06-09T14:29:06.917Z,4.80
2018-06-09T14:31:35.336Z,4.63
2018-06-09T14:34:03.865Z,4.80
2018-06-09T14:36:32.085Z,5.20
2018-06-09T14:39:00.369Z,5.63
2018-06-09T14:41:28.643Z,6.87
2018-06-09T14:43:57.091Z,7.83
2018-06-09T14:46:25.320Z,9.60
2018-06-09T14:48:53.737Z,7.27
2018-06-09T14:51:22.171Z,7.17
2018-06-09T14:53:50.489Z,8.13
2018-06-09T14:56:18.793Z,7.40
2018-06-09T14:58:47.017Z,6.77
2018-06-09T15:01:15.324Z,9.27
2018-06-09T15:03:43.630Z,8.40
2018-06-09T15:06:11.631Z,7.57
2018-06-09T15:08:39.832Z,8.77
2018-06-09T15:11:08.049Z,8.07
2018-06-09T15:13:36.214Z,6.90
2018-06-09T15:16:04.967Z,5.60
2018-06-09T15:18:33.219Z,7.37
2018-06-09T15:21:01.693Z,8.20
2018-06-09T15:23:30.097Z,9.70
2018-06-09T15:25:58.962Z,6.93
2018-06-09T15:28:27.316Z,6.80
2018-06-09T15:30:55.738Z,10.20
2018-06-09T15:33:24.149Z,8.63
2018-06-09T15:35:52.776Z,8.87
2018-06-09T15:38:21.030Z,9.20
2018-06-09T15:40:49.359Z,11.03
2018-06-09T15:43:17.652Z,9.13
2018-06-09T15:45:45.921Z,10.10
2018-06-09T15:48:14.904Z,9.00
2018-06-09T15:50:43.360Z,7.53
2018-06-09T15:53:11.759Z,9.70
2018-06-09T15:55:40.248Z,8.60
2018-06-09T15:58:08.492Z,7.90
2018-06-09T16:00:36.779Z,9.83
2018-06-09T16:03:05.043Z,10.00
2018-06-09T16:05:33.210Z,7.50
2018-06-09T16:08:01.480Z,9.20
2018-06-09T16:10:29.697Z,7.53
2018-06-09T16:12:57.973Z,8.87
2018-06-09T16:15:26.335Z,10.33
2018-06-09T16:17:54.528Z,9.57
2018-06-09T16:20:22.795Z,10.60
2018-06-09T16:22:51.048Z,10.27
2018-06-09T16:25:19.451Z,9.70
2018-06-09T16:27:47.648Z,11.23
2018-06-09T16:30:15.898Z,10.30
2018-06-09T16:32:44.305Z,10.57
2018-06-09T16:35:12.502Z,11.13
2018-06-09T16:37:40.716Z,11.10
2018-06-09T16:40:09.085Z,9.50
2018-06-09T16:42:37.360Z,12.63
2018-06-09T16:45:05.667Z,11.03
2018-06-09T16:47:33.974Z,11.47
2018-06-09T16:50:02.426Z,12.67
2018-06-09T16:52:31.082Z,13.23
2018-06-09T16:54:59.416Z,11.87
2018-06-09T16:57:27.725Z,13.30
2018-06-09T16:59:55.897Z,12.13
2018-06-09T17:02:25.217Z,12.43
2018-06-09T17:04:53.513Z,13.50
2018-06-09T17:07:21.769Z,13.20
2018-06-09T17:09:49.993Z,14.63
2018-06-09T17:12:18.396Z,14.50
2018-06-09T17:14:46.739Z,14.17
2018-06-09T17:17:15.023Z,14.07
2018-06-09T17:19:43.366Z,14.37
2018-06-09T17:22:11.612Z,15.50
2018-06-09T17:24:40.613Z,15.53
2018-06-09T17:27:08.943Z,17.60
2018-06-09T17:29:37.244Z,17.67
2018-06-09T17:32:05.524Z,21.20
2018-06-09T17:34:33.943Z,20.17
2018-06-09T17:37:02.194Z,19.50
2018-06-09T17:39:30.516Z,18.90
2018-06-09T17:41:59.405Z,17.17
2018-06-09T17:44:28.329Z,18.30
2018-06-09T17:46:56.799Z,20.53
2018-06-09T17:49:33.227Z,18.60
2018-06-09T17:52:01.477Z,18.50
2018-06-09T17:54:30.174Z,16.90
2018-06-09T17:56:58.668Z,19.97
2018-06-09T17:59:26.877Z,16.93
2018-06-09T18:01:55.136Z,19.50
2018-06-09T18:04:23.394Z,20.47
2018-06-09T18:06:51.760Z,19.33
2018-06-09T18:09:21.420Z,18.83
2018-06-09T18:11:50.098Z,18.53
2018-06-09T18:14:19.131Z,20.23
2018-06-09T18:16:47.365Z,20.67
2018-06-09T18:19:15.700Z,21.13
2018-06-09T18:21:43.840Z,22.43
2018-06-09T18:24:12.203Z,22.33
2018-06-09T18:26:40.567Z,23.53
2018-06-09T18:29:08.827Z,21.23
2018-06-09T18:31:37.135Z,20.43
2018-06-09T18:34:05.497Z,22.60
2018-06-09T18:36:33.936Z,27.13
2018-06-09T18:39:02.266Z,25.23
2018-06-09T18:41:30.566Z,24.83
2018-06-09T18:43:58.815Z,20.80
2018-06-09T18:46:27.101Z,20.80
2018-06-09T18:48:55.503Z,24.77
2018-06-09T18:51:23.752Z,19.77
2018-06-09T18:53:52.122Z,21.30
2018-06-09T18:56:21.597Z,24.70
2018-06-09T18:58:50.089Z,24.17
2018-06-09T19:01:18.271Z,31.93
2018-06-09T19:03:46.454Z,25.67
2018-06-09T19:06:14.673Z,26.50
2018-06-09T19:08:43.055Z,24.17
2018-06-09T19:11:11.328Z,25.43
2018-06-09T19:13:39.528Z,26.27
2018-06-09T19:16:07.805Z,28.10
2018-06-09T19:18:36.025Z,30.60
2018-06-09T19:21:17.695Z,28.90
2018-06-09T19:23:45.898Z,25.80
2018-06-09T19:26:14.103Z,33.43
2018-06-09T19:28:42.337Z,29.10
2018-06-09T19:31:10.540Z,29.97
2018-06-09T19:33:38.775Z,33.40
2018-06-09T19:36:07.143Z,33.43
2018-06-09T19:38:35.455Z,33.53
2018-06-09T19:41:04.519Z,35.37
2018-06-09T19:43:32.780Z,32.13
2018-06-09T19:46:01.352Z,32.53
2018-06-09T19:48:29.618Z,31.57
2018-06-09T19:50:57.900Z,30.77
2018-06-09T19:53:26.085Z,33.47
2018-06-09T19:55:55.619Z,31.43
2018-06-09T19:58:24.188Z,34.73
2018-06-09T20:00:52.711Z,30.13
2018-06-09T20:03:21.073Z,26.83
2018-06-09T20:05:49.332Z,33.00
2018-06-09T20:08:17.622Z,32.23
2018-06-09T20:10:46.312Z,136.40
2018-06-09T20:13:14.505Z,28.73
2018-06-09T20:15:42.844Z,69.60
2018-06-09T20:18:12.242Z,41.60
2018-06-09T20:20:41.300Z,38.17
2018-06-09T20:23:09.719Z,32.27
2018-06-09T20:25:38.060Z,34.80
2018-06-09T20:28:06.285Z,33.67
2018-06-09T20:30:34.563Z,31.27
2018-06-09T20:33:02.816Z,34.97
2018-06-09T20:35:31.017Z,35.40
2018-06-09T20:37:59.279Z,35.83
2018-06-09T20:40:27.598Z,30.97
2018-06-09T20:42:55.895Z,32.23
2018-06-09T20:45:24.099Z,35.10
2018-06-09T20:47:52.321Z,27.87
2018-06-09T20:50:20.541Z,30.53
2018-06-09T20:52:49.840Z,32.30
2018-06-09T20:55:18.035Z,34.80
2018-06-09T20:57:46.232Z,29.07
2018-06-09T21:00:14.464Z,35.53
2018-06-09T21:02:42.752Z,32.00
2018-06-09T21:05:10.949Z,35.33
2018-06-09T21:07:39.276Z,40.03
2018-06-09T21:10:07.480Z,34.33
2018-06-09T21:12:35.721Z,38.33
2018-06-09T21:15:03.909Z,42.60
2018-06-09T21:17:32.229Z,35.40
2018-06-09T21:20:00.550Z,38.17
2018-06-09T21:22:29.656Z,34.17
2018-06-09T21:24:58.070Z,28.17
2018-06-09T21:27:33.428Z,33.70
2018-06-09T21:30:06.016Z,32.07
2018-06-09T21:32:39.534Z,30.80
2018-06-09T21:35:24.608Z,29.63
2018-06-09T21:37:57.047Z,24.30
2018-06-09T21:40:25.323Z,26.17
2018-06-09T21:42:58.962Z,28.27
2018-06-09T21:45:32.382Z,25.70
2018-06-09T21:48:00.584Z,24.87
2018-06-09T21:50:29.202Z,26.97
2018-06-09T21:52:57.458Z,23.90
2018-06-09T21:55:25.885Z,26.63
2018-06-09T21:57:54.134Z,24.63
2018-06-09T22:00:26.740Z,23.47
2018-06-09T22:02:55.680Z,23.27
2018-06-09T22:05:23.895Z,24.43
2018-06-09T22:07:52.116Z,22.10
2018-06-09T22:10:20.349Z,20.33
2018-06-09T22:12:48.985Z,24.07
2018-06-09T22:15:17.299Z,23.23
2018-06-09T22:17:45.487Z,24.77
2018-06-09T22:20:13.810Z,24.43
2018-06-09T22:22:42.452Z,21.50
2018-06-09T22:25:10.873Z,22.17
2018-06-09T22:27:39.175Z,23.77
2018-06-09T22:30:07.457Z,21.13
2018-06-09T22:32:35.953Z,23.80
2018-06-09T22:35:04.191Z,21.37
2018-06-09T22:37:32.139Z,21.93
2018-06-09T22:40:00.299Z,22.43
2018-06-09T22:42:28.578Z,22.60
2018-06-09T22:44:56.820Z,19.47
2018-06-09T22:47:25.596Z,22.20
2018-06-09T22:49:53.834Z,22.57
2018-06-09T22:52:22.071Z,22.93
2018-06-09T22:54:50.480Z,24.00
2018-06-09T22:57:18.654Z,20.00
2018-06-09T22:59:47.504Z,20.10
2018-06-09T23:02:15.732Z,21.80
2018-06-09T23:04:43.954Z,24.17
2018-06-09T23:07:12.429Z,24.03
2018-06-09T23:09:40.743Z,23.10
2018-06-09T23:12:08.907Z,23.40
2018-06-09T23:14:37.075Z,23.77
2018-06-09T23:17:05.437Z,23.80
2018-06-09T23:19:33.910Z,26.23
2018-06-09T23:22:02.091Z,25.03
2018-06-09T23:24:30.308Z,28.53
2018-06-09T23:26:58.757Z,24.87
2018-06-09T23:29:26.967Z,28.23
2018-06-09T23:31:55.147Z,27.97
2018-06-09T23:34:23.367Z,27.27
2018-06-09T23:36:51.565Z,224.30
2018-06-09T23:39:19.812Z,492.50
2018-06-09T23:41:48.008Z,24.90
2018-06-09T23:44:16.195Z,26.57
2018-06-09T23:46:44.371Z,27.93
2018-06-09T23:49:12.556Z,28.77
2018-06-09T23:51:41.025Z,35.20
2018-06-09T23:54:09.249Z,36.13
2018-06-09T23:56:37.454Z,38.13
2018-06-09T23:59:05.632Z,32.50
